sensor_id;sensor_type;location;lat;lon;timestamp;P1;durP1;ratioP1;P2;durP2;ratioP2
60873;SDS011;46715;40.642;-7.920;2023-12-20T00:01:48;112.30;;;70.87;;
60873;SDS011;46715;40.642;-7.920;2023-12-20T00:03:49;117.47;;;77.53;;
60873;SDS011;46715;40.642;-7.920;2023-12-20T00:05:50;102.67;;;71.23;;
60873;SDS011;46715;40.642;-7.920;2023-12-20T00:07:51;106.43;;;72.90;;
60873;SDS011;46715;40.642;-7.920;2023-12-20T00:09:52;110.10;;;75.07;;
60873;SDS011;46715;40.642;-7.920;2023-12-20T00:11:52;115.27;;;74.87;;
60873;SDS011;46715;40.642;-7.920;2023-12-20T00:13:53;114.33;;;75.67;;
60873;SDS011;46715;40.642;-7.920;2023-12-20T00:15:54;122.83;;;76.20;;
60873;SDS011;46715;40.642;-7.920;2023-12-20T00:17:54;113.83;;;74.97;;
60873;SDS011;46715;40.642;-7.920;2023-12-20T00:19:55;113.23;;;73.07;;
60873;SDS011;46715;40.642;-7.920;2023-12-20T00:21:56;110.17;;;71.30;;
60873;SDS011;46715;40.642;-7.920;2023-12-20T00:23:57;102.27;;;66.77;;
60873;SDS011;46715;40.642;-7.920;2023-12-20T00:25:58;107.53;;;68.70;;
60873;SDS011;46715;40.642;-7.920;2023-12-20T00:27:58;96.77;;;64.20;;
60873;SDS011;46715;40.642;-7.920;2023-12-20T00:29:59;95.90;;;62.80;;
60873;SDS011;46715;40.642;-7.920;2023-12-20T00:32:00;90.43;;;59.43;;
60873;SDS011;46715;40.642;-7.920;2023-12-20T00:34:01;91.70;;;58.27;;
60873;SDS011;46715;40.642;-7.920;2023-12-20T00:36:01;77.33;;;53.07;;
60873;SDS011;46715;40.642;-7.920;2023-12-20T00:38:02;81.87;;;53.83;;
60873;SDS011;46715;40.642;-7.920;2023-12-20T00:40:05;72.38;;;48.58;;
60873;SDS011;46715;40.642;-7.920;2023-12-20T00:42:06;73.53;;;50.53;;
60873;SDS011;46715;40.642;-7.920;2023-12-20T00:44:07;74.73;;;49.23;;
60873;SDS011;46715;40.642;-7.920;2023-12-20T00:46:08;72.00;;;48.10;;
60873;SDS011;46715;40.642;-7.920;2023-12-20T00:48:09;75.00;;;48.00;;
60873;SDS011;46715;40.642;-7.920;2023-12-20T00:50:10;71.37;;;46.23;;
60873;SDS011;46715;40.642;-7.920;2023-12-20T00:52:10;69.13;;;46.80;;
60873;SDS011;46715;40.642;-7.920;2023-12-20T00:54:11;66.90;;;44.77;;
60873;SDS011;46715;40.642;-7.920;2023-12-20T00:56:12;71.07;;;46.03;;
60873;SDS011;46715;40.642;-7.920;2023-12-20T00:58:12;70.53;;;47.97;;
60873;SDS011;46715;40.642;-7.920;2023-12-20T01:00:15;66.45;;;45.63;;
60873;SDS011;46715;40.642;-7.920;2023-12-20T01:02:16;70.50;;;46.97;;
60873;SDS011;46715;40.642;-7.920;2023-12-20T01:04:17;77.93;;;50.40;;
60873;SDS011;46715;40.642;-7.920;2023-12-20T01:06:18;76.10;;;48.50;;
60873;SDS011;46715;40.642;-7.920;2023-12-20T01:08:19;75.30;;;47.93;;
60873;SDS011;46715;40.642;-7.920;2023-12-20T01:10:20;72.57;;;48.53;;
60873;SDS011;46715;40.642;-7.920;2023-12-20T01:12:23;73.57;;;48.30;;
60873;SDS011;46715;40.642;-7.920;2023-12-20T01:14:23;68.27;;;48.77;;
60873;SDS011;46715;40.642;-7.920;2023-12-20T01:16:24;71.10;;;48.80;;
60873;SDS011;46715;40.642;-7.920;2023-12-20T01:18:25;66.93;;;47.10;;
60873;SDS011;46715;40.642;-7.920;2023-12-20T01:20:26;72.50;;;49.67;;
60873;SDS011;46715;40.642;-7.920;2023-12-20T01:22:26;63.47;;;45.27;;
60873;SDS011;46715;40.642;-7.920;2023-12-20T01:24:27;65.13;;;45.20;;
60873;SDS011;46715;40.642;-7.920;2023-12-20T01:26:28;67.70;;;47.70;;
60873;SDS011;46715;40.642;-7.920;2023-12-20T01:28:29;63.67;;;44.03;;
60873;SDS011;46715;40.642;-7.920;2023-12-20T01:30:30;58.53;;;41.93;;
60873;SDS011;46715;40.642;-7.920;2023-12-20T01:32:30;62.13;;;44.13;;
60873;SDS011;46715;40.642;-7.920;2023-12-20T01:34:31;67.43;;;43.13;;
60873;SDS011;46715;40.642;-7.920;2023-12-20T01:36:32;64.13;;;44.20;;
60873;SDS011;46715;40.642;-7.920;2023-12-20T01:38:33;65.73;;;43.83;;
60873;SDS011;46715;40.642;-7.920;2023-12-20T01:40:33;66.57;;;45.23;;
60873;SDS011;46715;40.642;-7.920;2023-12-20T01:42:34;62.27;;;43.07;;
60873;SDS011;46715;40.642;-7.920;2023-12-20T01:44:35;60.57;;;43.60;;
60873;SDS011;46715;40.642;-7.920;2023-12-20T01:46:36;57.40;;;41.33;;
60873;SDS011;46715;40.642;-7.920;2023-12-20T01:48:36;64.00;;;41.60;;
60873;SDS011;46715;40.642;-7.920;2023-12-20T01:50:38;65.65;;;41.53;;
60873;SDS011;46715;40.642;-7.920;2023-12-20T01:54:42;59.65;;;40.65;;
60873;SDS011;46715;40.642;-7.920;2023-12-20T01:56:43;60.90;;;43.93;;
60873;SDS011;46715;40.642;-7.920;2023-12-20T01:58:44;59.03;;;41.23;;
60873;SDS011;46715;40.642;-7.920;2023-12-20T02:00:46;54.28;;;39.92;;
60873;SDS011;46715;40.642;-7.920;2023-12-20T02:02:49;60.72;;;41.08;;
60873;SDS011;46715;40.642;-7.920;2023-12-20T02:04:51;60.50;;;40.00;;
60873;SDS011;46715;40.642;-7.920;2023-12-20T02:06:52;56.80;;;38.37;;
60873;SDS011;46715;40.642;-7.920;2023-12-20T02:08:53;62.15;;;37.97;;
60873;SDS011;46715;40.642;-7.920;2023-12-20T02:10:54;56.20;;;39.63;;
60873;SDS011;46715;40.642;-7.920;2023-12-20T02:12:56;58.63;;;39.33;;
60873;SDS011;46715;40.642;-7.920;2023-12-20T02:14:57;60.87;;;40.40;;
60873;SDS011;46715;40.642;-7.920;2023-12-20T02:16:57;58.70;;;41.63;;
60873;SDS011;46715;40.642;-7.920;2023-12-20T02:18:58;57.60;;;40.00;;
60873;SDS011;46715;40.642;-7.920;2023-12-20T02:20:59;56.50;;;38.33;;
60873;SDS011;46715;40.642;-7.920;2023-12-20T02:23:00;58.40;;;38.27;;
60873;SDS011;46715;40.642;-7.920;2023-12-20T02:25:01;58.00;;;39.40;;
60873;SDS011;46715;40.642;-7.920;2023-12-20T02:27:01;64.13;;;41.43;;
60873;SDS011;46715;40.642;-7.920;2023-12-20T02:29:03;63.63;;;41.97;;
60873;SDS011;46715;40.642;-7.920;2023-12-20T02:31:04;57.03;;;40.23;;
60873;SDS011;46715;40.642;-7.920;2023-12-20T02:33:06;61.73;;;41.27;;
60873;SDS011;46715;40.642;-7.920;2023-12-20T02:35:10;59.70;;;40.35;;
60873;SDS011;46715;40.642;-7.920;2023-12-20T02:37:11;63.37;;;41.87;;
60873;SDS011;46715;40.642;-7.920;2023-12-20T02:39:12;63.40;;;41.00;;
60873;SDS011;46715;40.642;-7.920;2023-12-20T02:41:13;57.88;;;41.72;;
60873;SDS011;46715;40.642;-7.920;2023-12-20T02:43:16;58.10;;;41.65;;
60873;SDS011;46715;40.642;-7.920;2023-12-20T02:45:16;60.33;;;43.27;;
60873;SDS011;46715;40.642;-7.920;2023-12-20T02:47:17;64.53;;;43.20;;
60873;SDS011;46715;40.642;-7.920;2023-12-20T02:49:18;63.27;;;45.27;;
60873;SDS011;46715;40.642;-7.920;2023-12-20T02:51:19;65.50;;;45.67;;
60873;SDS011;46715;40.642;-7.920;2023-12-20T02:53:20;61.67;;;43.60;;
60873;SDS011;46715;40.642;-7.920;2023-12-20T02:55:20;66.63;;;43.97;;
60873;SDS011;46715;40.642;-7.920;2023-12-20T02:57:21;64.70;;;43.30;;
60873;SDS011;46715;40.642;-7.920;2023-12-20T02:59:22;70.03;;;43.67;;
60873;SDS011;46715;40.642;-7.920;2023-12-20T03:01:23;63.60;;;42.33;;
60873;SDS011;46715;40.642;-7.920;2023-12-20T03:03:24;59.63;;;43.03;;
60873;SDS011;46715;40.642;-7.920;2023-12-20T03:05:24;63.83;;;43.73;;
60873;SDS011;46715;40.642;-7.920;2023-12-20T03:07:25;62.28;;;43.67;;
60873;SDS011;46715;40.642;-7.920;2023-12-20T03:09:26;66.60;;;44.43;;
60873;SDS011;46715;40.642;-7.920;2023-12-20T03:11:27;64.00;;;43.28;;
60873;SDS011;46715;40.642;-7.920;2023-12-20T03:13:29;67.53;;;44.20;;
60873;SDS011;46715;40.642;-7.920;2023-12-20T03:15:29;70.35;;;47.47;;
60873;SDS011;46715;40.642;-7.920;2023-12-20T03:17:30;67.00;;;46.53;;
60873;SDS011;46715;40.642;-7.920;2023-12-20T03:19:31;75.57;;;45.70;;
60873;SDS011;46715;40.642;-7.920;2023-12-20T03:21:32;59.97;;;42.00;;
60873;SDS011;46715;40.642;-7.920;2023-12-20T03:23:32;64.50;;;44.17;;
60873;SDS011;46715;40.642;-7.920;2023-12-20T03:25:33;61.93;;;42.20;;
60873;SDS011;46715;40.642;-7.920;2023-12-20T03:27:36;64.57;;;43.80;;
60873;SDS011;46715;40.642;-7.920;2023-12-20T03:29:38;58.53;;;41.38;;
60873;SDS011;46715;40.642;-7.920;2023-12-20T03:31:39;64.93;;;42.17;;
60873;SDS011;46715;40.642;-7.920;2023-12-20T03:33:40;60.70;;;43.70;;
60873;SDS011;46715;40.642;-7.920;2023-12-20T03:35:41;59.23;;;41.10;;
60873;SDS011;46715;40.642;-7.920;2023-12-20T03:37:42;58.43;;;41.07;;
60873;SDS011;46715;40.642;-7.920;2023-12-20T03:39:43;57.80;;;39.93;;
60873;SDS011;46715;40.642;-7.920;2023-12-20T03:41:43;59.13;;;40.93;;
60873;SDS011;46715;40.642;-7.920;2023-12-20T03:43:44;64.37;;;42.53;;
60873;SDS011;46715;40.642;-7.920;2023-12-20T03:45:45;64.80;;;45.67;;
60873;SDS011;46715;40.642;-7.920;2023-12-20T03:47:46;62.65;;;42.70;;
60873;SDS011;46715;40.642;-7.920;2023-12-20T03:49:47;65.70;;;44.87;;
60873;SDS011;46715;40.642;-7.920;2023-12-20T03:51:48;69.50;;;46.07;;
60873;SDS011;46715;40.642;-7.920;2023-12-20T03:53:48;70.10;;;45.50;;
60873;SDS011;46715;40.642;-7.920;2023-12-20T03:55:49;68.43;;;47.23;;
60873;SDS011;46715;40.642;-7.920;2023-12-20T03:57:50;68.73;;;46.67;;
60873;SDS011;46715;40.642;-7.920;2023-12-20T03:59:51;69.35;;;46.53;;
60873;SDS011;46715;40.642;-7.920;2023-12-20T04:01:52;71.20;;;46.07;;
60873;SDS011;46715;40.642;-7.920;2023-12-20T04:03:53;79.90;;;51.20;;
60873;SDS011;46715;40.642;-7.920;2023-12-20T04:05:53;79.20;;;49.60;;
60873;SDS011;46715;40.642;-7.920;2023-12-20T04:07:54;71.60;;;46.70;;
60873;SDS011;46715;40.642;-7.920;2023-12-20T04:09:55;67.30;;;46.37;;
60873;SDS011;46715;40.642;-7.920;2023-12-20T04:11:56;67.20;;;43.67;;
60873;SDS011;46715;40.642;-7.920;2023-12-20T04:13:56;72.60;;;46.63;;
60873;SDS011;46715;40.642;-7.920;2023-12-20T04:15:57;74.33;;;48.13;;
60873;SDS011;46715;40.642;-7.920;2023-12-20T04:17:58;66.70;;;44.47;;
60873;SDS011;46715;40.642;-7.920;2023-12-20T04:20:02;63.58;;;43.90;;
60873;SDS011;46715;40.642;-7.920;2023-12-20T04:22:03;68.82;;;44.17;;
60873;SDS011;46715;40.642;-7.920;2023-12-20T04:24:04;70.80;;;46.43;;
60873;SDS011;46715;40.642;-7.920;2023-12-20T04:26:05;66.67;;;44.40;;
60873;SDS011;46715;40.642;-7.920;2023-12-20T04:28:06;70.77;;;47.40;;
60873;SDS011;46715;40.642;-7.920;2023-12-20T04:30:06;84.43;;;51.23;;
60873;SDS011;46715;40.642;-7.920;2023-12-20T04:32:08;75.05;;;51.15;;
60873;SDS011;46715;40.642;-7.920;2023-12-20T04:34:08;72.00;;;48.07;;
60873;SDS011;46715;40.642;-7.920;2023-12-20T04:36:09;72.83;;;47.77;;
60873;SDS011;46715;40.642;-7.920;2023-12-20T04:38:10;72.67;;;47.03;;
60873;SDS011;46715;40.642;-7.920;2023-12-20T04:40:11;77.80;;;51.33;;
60873;SDS011;46715;40.642;-7.920;2023-12-20T04:42:12;82.53;;;52.13;;
60873;SDS011;46715;40.642;-7.920;2023-12-20T04:44:13;81.03;;;50.80;;
60873;SDS011;46715;40.642;-7.920;2023-12-20T04:46:14;82.45;;;52.65;;
60873;SDS011;46715;40.642;-7.920;2023-12-20T04:48:15;59.90;;;41.43;;
60873;SDS011;46715;40.642;-7.920;2023-12-20T04:50:16;56.70;;;40.33;;
60873;SDS011;46715;40.642;-7.920;2023-12-20T04:52:16;57.20;;;40.27;;
60873;SDS011;46715;40.642;-7.920;2023-12-20T04:54:17;54.40;;;38.30;;
60873;SDS011;46715;40.642;-7.920;2023-12-20T04:56:18;53.93;;;38.47;;
60873;SDS011;46715;40.642;-7.920;2023-12-20T04:58:19;55.47;;;38.78;;
60873;SDS011;46715;40.642;-7.920;2023-12-20T05:00:20;57.53;;;39.77;;
60873;SDS011;46715;40.642;-7.920;2023-12-20T05:02:22;63.78;;;40.58;;
60873;SDS011;46715;40.642;-7.920;2023-12-20T05:04:23;56.63;;;39.58;;
60873;SDS011;46715;40.642;-7.920;2023-12-20T05:06:24;58.77;;;41.30;;
60873;SDS011;46715;40.642;-7.920;2023-12-20T05:08:25;64.23;;;43.10;;
60873;SDS011;46715;40.642;-7.920;2023-12-20T05:10:25;66.13;;;43.37;;
60873;SDS011;46715;40.642;-7.920;2023-12-20T05:12:27;68.70;;;42.35;;
60873;SDS011;46715;40.642;-7.920;2023-12-20T05:14:28;61.63;;;42.23;;
60873;SDS011;46715;40.642;-7.920;2023-12-20T05:16:29;65.43;;;41.30;;
60873;SDS011;46715;40.642;-7.920;2023-12-20T05:18:29;64.47;;;42.90;;
60873;SDS011;46715;40.642;-7.920;2023-12-20T05:20:30;58.37;;;39.53;;
60873;SDS011;46715;40.642;-7.920;2023-12-20T05:22:31;60.77;;;40.63;;
60873;SDS011;46715;40.642;-7.920;2023-12-20T05:24:32;59.07;;;39.30;;
60873;SDS011;46715;40.642;-7.920;2023-12-20T05:26:32;63.50;;;39.87;;
60873;SDS011;46715;40.642;-7.920;2023-12-20T05:28:33;56.17;;;39.30;;
60873;SDS011;46715;40.642;-7.920;2023-12-20T05:30:34;58.53;;;38.53;;
60873;SDS011;46715;40.642;-7.920;2023-12-20T05:32:35;60.53;;;39.53;;
60873;SDS011;46715;40.642;-7.920;2023-12-20T05:34:36;56.75;;;37.55;;
60873;SDS011;46715;40.642;-7.920;2023-12-20T05:36:37;57.63;;;36.70;;
60873;SDS011;46715;40.642;-7.920;2023-12-20T05:38:37;60.33;;;37.67;;
60873;SDS011;46715;40.642;-7.920;2023-12-20T05:40:38;61.10;;;37.70;;
60873;SDS011;46715;40.642;-7.920;2023-12-20T05:42:39;51.37;;;35.53;;
60873;SDS011;46715;40.642;-7.920;2023-12-20T05:44:40;55.07;;;35.80;;
60873;SDS011;46715;40.642;-7.920;2023-12-20T05:46:40;58.40;;;34.83;;
60873;SDS011;46715;40.642;-7.920;2023-12-20T05:48:41;62.43;;;38.13;;
60873;SDS011;46715;40.642;-7.920;2023-12-20T05:50:42;55.23;;;36.37;;
60873;SDS011;46715;40.642;-7.920;2023-12-20T05:52:43;55.47;;;35.87;;
60873;SDS011;46715;40.642;-7.920;2023-12-20T05:54:43;50.27;;;34.70;;
60873;SDS011;46715;40.642;-7.920;2023-12-20T05:56:44;49.27;;;33.83;;
60873;SDS011;46715;40.642;-7.920;2023-12-20T05:58:45;58.20;;;36.63;;
60873;SDS011;46715;40.642;-7.920;2023-12-20T06:00:46;56.97;;;35.73;;
60873;SDS011;46715;40.642;-7.920;2023-12-20T06:02:46;56.47;;;34.70;;
60873;SDS011;46715;40.642;-7.920;2023-12-20T06:04:47;57.40;;;33.97;;
60873;SDS011;46715;40.642;-7.920;2023-12-20T06:06:48;51.13;;;34.07;;
60873;SDS011;46715;40.642;-7.920;2023-12-20T06:08:49;47.23;;;33.60;;
60873;SDS011;46715;40.642;-7.920;2023-12-20T06:10:49;57.03;;;34.90;;
60873;SDS011;46715;40.642;-7.920;2023-12-20T06:12:51;51.50;;;33.53;;
60873;SDS011;46715;40.642;-7.920;2023-12-20T06:14:51;51.30;;;33.30;;
60873;SDS011;46715;40.642;-7.920;2023-12-20T06:16:52;56.03;;;35.27;;
60873;SDS011;46715;40.642;-7.920;2023-12-20T06:18:53;51.23;;;32.90;;
60873;SDS011;46715;40.642;-7.920;2023-12-20T06:20:54;55.40;;;33.20;;
60873;SDS011;46715;40.642;-7.920;2023-12-20T06:22:55;54.63;;;34.43;;
60873;SDS011;46715;40.642;-7.920;2023-12-20T06:24:56;58.50;;;34.57;;
60873;SDS011;46715;40.642;-7.920;2023-12-20T06:26:56;56.47;;;35.30;;
60873;SDS011;46715;40.642;-7.920;2023-12-20T06:28:57;68.93;;;37.03;;
60873;SDS011;46715;40.642;-7.920;2023-12-20T06:30:58;54.80;;;33.37;;
60873;SDS011;46715;40.642;-7.920;2023-12-20T06:33:00;54.55;;;32.53;;
60873;SDS011;46715;40.642;-7.920;2023-12-20T06:35:01;47.97;;;33.03;;
60873;SDS011;46715;40.642;-7.920;2023-12-20T06:37:02;59.63;;;34.53;;
60873;SDS011;46715;40.642;-7.920;2023-12-20T06:39:03;62.47;;;35.57;;
60873;SDS011;46715;40.642;-7.920;2023-12-20T06:41:05;59.35;;;34.95;;
60873;SDS011;46715;40.642;-7.920;2023-12-20T06:43:09;53.95;;;32.30;;
60873;SDS011;46715;40.642;-7.920;2023-12-20T06:45:10;53.92;;;32.80;;
60873;SDS011;46715;40.642;-7.920;2023-12-20T06:47:11;56.57;;;33.00;;
60873;SDS011;46715;40.642;-7.920;2023-12-20T06:49:12;59.70;;;35.50;;
60873;SDS011;46715;40.642;-7.920;2023-12-20T06:51:14;62.23;;;36.43;;
60873;SDS011;46715;40.642;-7.920;2023-12-20T06:53:16;54.28;;;33.40;;
60873;SDS011;46715;40.642;-7.920;2023-12-20T06:55:16;58.67;;;33.40;;
60873;SDS011;46715;40.642;-7.920;2023-12-20T06:57:18;54.90;;;35.20;;
60873;SDS011;46715;40.642;-7.920;2023-12-20T06:59:20;61.55;;;35.33;;
60873;SDS011;46715;40.642;-7.920;2023-12-20T07:01:20;60.20;;;36.63;;
60873;SDS011;46715;40.642;-7.920;2023-12-20T07:03:21;59.20;;;35.87;;
60873;SDS011;46715;40.642;-7.920;2023-12-20T07:05:22;51.10;;;33.27;;
60873;SDS011;46715;40.642;-7.920;2023-12-20T07:07:22;58.07;;;34.77;;
60873;SDS011;46715;40.642;-7.920;2023-12-20T07:11:25;57.28;;;32.53;;
60873;SDS011;46715;40.642;-7.920;2023-12-20T07:13:26;53.10;;;33.50;;
60873;SDS011;46715;40.642;-7.920;2023-12-20T07:15:27;51.33;;;31.97;;
60873;SDS011;46715;40.642;-7.920;2023-12-20T07:17:29;52.17;;;31.90;;
60873;SDS011;46715;40.642;-7.920;2023-12-20T07:19:30;47.23;;;29.87;;
60873;SDS011;46715;40.642;-7.920;2023-12-20T07:21:31;59.23;;;33.87;;
60873;SDS011;46715;40.642;-7.920;2023-12-20T07:23:32;54.95;;;31.75;;
60873;SDS011;46715;40.642;-7.920;2023-12-20T07:25:32;49.43;;;32.60;;
60873;SDS011;46715;40.642;-7.920;2023-12-20T07:27:33;51.90;;;31.57;;
60873;SDS011;46715;40.642;-7.920;2023-12-20T07:29:34;52.67;;;32.90;;
60873;SDS011;46715;40.642;-7.920;2023-12-20T07:31:35;49.93;;;31.00;;
60873;SDS011;46715;40.642;-7.920;2023-12-20T07:33:35;52.23;;;30.80;;
60873;SDS011;46715;40.642;-7.920;2023-12-20T07:35:36;45.37;;;30.30;;
60873;SDS011;46715;40.642;-7.920;2023-12-20T07:37:37;50.53;;;30.23;;
60873;SDS011;46715;40.642;-7.920;2023-12-20T07:39:39;54.17;;;32.40;;
60873;SDS011;46715;40.642;-7.920;2023-12-20T07:41:40;59.92;;;32.75;;
60873;SDS011;46715;40.642;-7.920;2023-12-20T07:43:41;53.13;;;30.57;;
60873;SDS011;46715;40.642;-7.920;2023-12-20T07:45:42;65.65;;;34.80;;
60873;SDS011;46715;40.642;-7.920;2023-12-20T07:47:43;49.60;;;29.97;;
60873;SDS011;46715;40.642;-7.920;2023-12-20T07:49:43;49.27;;;31.33;;
60873;SDS011;46715;40.642;-7.920;2023-12-20T07:51:44;53.83;;;30.10;;
60873;SDS011;46715;40.642;-7.920;2023-12-20T07:53:45;250.43;;;39.27;;
60873;SDS011;46715;40.642;-7.920;2023-12-20T07:55:46;79.63;;;32.10;;
60873;SDS011;46715;40.642;-7.920;2023-12-20T07:57:47;65.37;;;32.13;;
60873;SDS011;46715;40.642;-7.920;2023-12-20T07:59:47;59.67;;;31.13;;
60873;SDS011;46715;40.642;-7.920;2023-12-20T08:01:48;71.40;;;33.17;;
60873;SDS011;46715;40.642;-7.920;2023-12-20T08:03:49;94.23;;;32.83;;
60873;SDS011;46715;40.642;-7.920;2023-12-20T08:05:50;51.88;;;28.55;;
60873;SDS011;46715;40.642;-7.920;2023-12-20T08:07:51;149.87;;;34.27;;
60873;SDS011;46715;40.642;-7.920;2023-12-20T08:09:52;71.40;;;31.73;;
60873;SDS011;46715;40.642;-7.920;2023-12-20T08:11:55;58.80;;;28.50;;
60873;SDS011;46715;40.642;-7.920;2023-12-20T08:13:56;61.83;;;29.63;;
60873;SDS011;46715;40.642;-7.920;2023-12-20T08:15:56;57.47;;;28.63;;
60873;SDS011;46715;40.642;-7.920;2023-12-20T08:17:57;50.33;;;27.13;;
60873;SDS011;46715;40.642;-7.920;2023-12-20T08:19:58;48.20;;;28.53;;
60873;SDS011;46715;40.642;-7.920;2023-12-20T08:21:59;45.50;;;25.92;;
60873;SDS011;46715;40.642;-7.920;2023-12-20T08:24:00;44.97;;;26.50;;
60873;SDS011;46715;40.642;-7.920;2023-12-20T08:26:05;42.37;;;23.37;;
60873;SDS011;46715;40.642;-7.920;2023-12-20T08:28:06;35.63;;;20.83;;
60873;SDS011;46715;40.642;-7.920;2023-12-20T08:30:09;40.42;;;21.40;;
60873;SDS011;46715;40.642;-7.920;2023-12-20T08:32:10;35.13;;;21.20;;
60873;SDS011;46715;40.642;-7.920;2023-12-20T08:34:11;32.90;;;20.80;;
60873;SDS011;46715;40.642;-7.920;2023-12-20T08:36:14;33.85;;;20.35;;
60873;SDS011;46715;40.642;-7.920;2023-12-20T08:38:15;40.37;;;18.27;;
60873;SDS011;46715;40.642;-7.920;2023-12-20T08:40:17;60.63;;;21.52;;
60873;SDS011;46715;40.642;-7.920;2023-12-20T08:42:17;41.07;;;24.17;;
60873;SDS011;46715;40.642;-7.920;2023-12-20T08:44:18;86.78;;;27.02;;
60873;SDS011;46715;40.642;-7.920;2023-12-20T08:46:19;103.87;;;32.83;;
60873;SDS011;46715;40.642;-7.920;2023-12-20T08:48:20;57.80;;;28.83;;
60873;SDS011;46715;40.642;-7.920;2023-12-20T08:50:21;100.10;;;36.40;;
60873;SDS011;46715;40.642;-7.920;2023-12-20T08:52:22;167.33;;;36.63;;
60873;SDS011;46715;40.642;-7.920;2023-12-20T08:54:27;54.47;;;25.08;;
60873;SDS011;46715;40.642;-7.920;2023-12-20T08:56:27;45.40;;;27.57;;
60873;SDS011;46715;40.642;-7.920;2023-12-20T08:58:28;34.47;;;22.60;;
60873;SDS011;46715;40.642;-7.920;2023-12-20T09:00:29;25.63;;;16.80;;
60873;SDS011;46715;40.642;-7.920;2023-12-20T09:02:31;12.85;;;8.15;;
60873;SDS011;46715;40.642;-7.920;2023-12-20T09:04:32;9.23;;;5.97;;
60873;SDS011;46715;40.642;-7.920;2023-12-20T09:06:33;17.30;;;12.67;;
60873;SDS011;46715;40.642;-7.920;2023-12-20T09:08:33;17.97;;;12.43;;
60873;SDS011;46715;40.642;-7.920;2023-12-20T09:10:34;17.43;;;13.10;;
60873;SDS011;46715;40.642;-7.920;2023-12-20T09:12:35;20.37;;;13.40;;
60873;SDS011;46715;40.642;-7.920;2023-12-20T09:14:39;18.42;;;12.45;;
60873;SDS011;46715;40.642;-7.920;2023-12-20T09:16:41;17.88;;;13.13;;
60873;SDS011;46715;40.642;-7.920;2023-12-20T09:18:42;21.40;;;13.47;;
60873;SDS011;46715;40.642;-7.920;2023-12-20T09:20:45;18.15;;;12.32;;
60873;SDS011;46715;40.642;-7.920;2023-12-20T09:22:46;20.48;;;12.82;;
60873;SDS011;46715;40.642;-7.920;2023-12-20T09:24:47;16.73;;;12.60;;
60873;SDS011;46715;40.642;-7.920;2023-12-20T09:26:48;17.55;;;13.13;;
60873;SDS011;46715;40.642;-7.920;2023-12-20T09:28:49;19.67;;;13.60;;
60873;SDS011;46715;40.642;-7.920;2023-12-20T09:30:50;20.20;;;14.67;;
60873;SDS011;46715;40.642;-7.920;2023-12-20T09:32:50;22.10;;;15.20;;
60873;SDS011;46715;40.642;-7.920;2023-12-20T09:34:51;19.77;;;14.37;;
60873;SDS011;46715;40.642;-7.920;2023-12-20T09:36:52;18.23;;;13.30;;
60873;SDS011;46715;40.642;-7.920;2023-12-20T09:38:53;18.17;;;14.00;;
60873;SDS011;46715;40.642;-7.920;2023-12-20T09:40:54;17.45;;;12.85;;
60873;SDS011;46715;40.642;-7.920;2023-12-20T09:44:58;16.67;;;11.52;;
60873;SDS011;46715;40.642;-7.920;2023-12-20T09:47:03;14.32;;;11.27;;
60873;SDS011;46715;40.642;-7.920;2023-12-20T09:49:05;16.23;;;11.05;;
60873;SDS011;46715;40.642;-7.920;2023-12-20T09:51:06;14.82;;;10.70;;
60873;SDS011;46715;40.642;-7.920;2023-12-20T09:53:12;14.67;;;10.47;;
60873;SDS011;46715;40.642;-7.920;2023-12-20T09:55:19;14.68;;;10.75;;
60873;SDS011;46715;40.642;-7.920;2023-12-20T09:57:20;17.55;;;12.18;;
60873;SDS011;46715;40.642;-7.920;2023-12-20T09:59:21;16.20;;;12.00;;
60873;SDS011;46715;40.642;-7.920;2023-12-20T10:01:22;18.53;;;12.10;;
60873;SDS011;46715;40.642;-7.920;2023-12-20T10:03:25;17.75;;;13.73;;
60873;SDS011;46715;40.642;-7.920;2023-12-20T10:05:30;19.67;;;14.02;;
60873;SDS011;46715;40.642;-7.920;2023-12-20T10:07:32;21.77;;;14.68;;
60873;SDS011;46715;40.642;-7.920;2023-12-20T10:09:32;18.30;;;12.90;;
60873;SDS011;46715;40.642;-7.920;2023-12-20T10:11:35;16.15;;;11.25;;
60873;SDS011;46715;40.642;-7.920;2023-12-20T10:13:41;15.27;;;12.20;;
60873;SDS011;46715;40.642;-7.920;2023-12-20T10:15:45;12.30;;;8.95;;
60873;SDS011;46715;40.642;-7.920;2023-12-20T10:17:46;13.00;;;9.33;;
60873;SDS011;46715;40.642;-7.920;2023-12-20T10:19:49;12.07;;;8.82;;
60873;SDS011;46715;40.642;-7.920;2023-12-20T10:21:50;12.20;;;9.37;;
60873;SDS011;46715;40.642;-7.920;2023-12-20T10:23:56;11.63;;;9.18;;
60873;SDS011;46715;40.642;-7.920;2023-12-20T10:25:58;13.40;;;10.05;;
60873;SDS011;46715;40.642;-7.920;2023-12-20T10:28:12;13.45;;;9.30;;
60873;SDS011;46715;40.642;-7.920;2023-12-20T10:30:14;14.88;;;10.07;;
60873;SDS011;46715;40.642;-7.920;2023-12-20T10:32:22;12.95;;;9.52;;
60873;SDS011;46715;40.642;-7.920;2023-12-20T10:34:26;15.68;;;10.45;;
60873;SDS011;46715;40.642;-7.920;2023-12-20T10:36:28;18.07;;;10.07;;
60873;SDS011;46715;40.642;-7.920;2023-12-20T10:38:30;14.13;;;9.93;;
60873;SDS011;46715;40.642;-7.920;2023-12-20T10:40:33;15.07;;;10.33;;
60873;SDS011;46715;40.642;-7.920;2023-12-20T10:42:36;14.77;;;10.10;;
60873;SDS011;46715;40.642;-7.920;2023-12-20T10:44:38;15.98;;;9.85;;
60873;SDS011;46715;40.642;-7.920;2023-12-20T10:46:39;15.95;;;10.38;;
60873;SDS011;46715;40.642;-7.920;2023-12-20T10:48:41;13.93;;;9.98;;
60873;SDS011;46715;40.642;-7.920;2023-12-20T10:50:43;18.20;;;10.15;;
60873;SDS011;46715;40.642;-7.920;2023-12-20T10:52:45;16.30;;;10.88;;
60873;SDS011;46715;40.642;-7.920;2023-12-20T10:56:48;21.65;;;11.02;;
60873;SDS011;46715;40.642;-7.920;2023-12-20T10:58:52;15.15;;;10.88;;
60873;SDS011;46715;40.642;-7.920;2023-12-20T11:01:00;19.40;;;10.80;;
60873;SDS011;46715;40.642;-7.920;2023-12-20T11:03:05;17.60;;;10.77;;
60873;SDS011;46715;40.642;-7.920;2023-12-20T11:07:39;16.92;;;10.02;;
60873;SDS011;46715;40.642;-7.920;2023-12-20T11:09:59;16.83;;;11.10;;
60873;SDS011;46715;40.642;-7.920;2023-12-20T11:12:15;16.35;;;10.90;;
60873;SDS011;46715;40.642;-7.920;2023-12-20T11:16:25;23.77;;;13.05;;
60873;SDS011;46715;40.642;-7.920;2023-12-20T11:18:30;16.90;;;10.65;;
60873;SDS011;46715;40.642;-7.920;2023-12-20T11:20:40;19.67;;;11.02;;
60873;SDS011;46715;40.642;-7.920;2023-12-20T11:22:51;21.00;;;12.13;;
60873;SDS011;46715;40.642;-7.920;2023-12-20T11:24:53;25.52;;;14.55;;
60873;SDS011;46715;40.642;-7.920;2023-12-20T11:27:02;25.88;;;13.18;;
60873;SDS011;46715;40.642;-7.920;2023-12-20T11:31:42;18.10;;;9.85;;
60873;SDS011;46715;40.642;-7.920;2023-12-20T11:33:43;11.90;;;7.68;;
60873;SDS011;46715;40.642;-7.920;2023-12-20T11:35:46;14.27;;;8.88;;
60873;SDS011;46715;40.642;-7.920;2023-12-20T11:37:47;18.67;;;11.40;;
60873;SDS011;46715;40.642;-7.920;2023-12-20T11:40:00;11.17;;;7.80;;
60873;SDS011;46715;40.642;-7.920;2023-12-20T11:42:05;9.82;;;6.50;;
60873;SDS011;46715;40.642;-7.920;2023-12-20T11:44:07;8.90;;;6.43;;
60873;SDS011;46715;40.642;-7.920;2023-12-20T11:46:09;9.65;;;7.18;;
60873;SDS011;46715;40.642;-7.920;2023-12-20T11:48:10;11.15;;;8.52;;
60873;SDS011;46715;40.642;-7.920;2023-12-20T11:50:11;12.93;;;8.55;;
60873;SDS011;46715;40.642;-7.920;2023-12-20T11:52:12;11.73;;;7.88;;
60873;SDS011;46715;40.642;-7.920;2023-12-20T11:54:13;12.55;;;8.15;;
60873;SDS011;46715;40.642;-7.920;2023-12-20T11:56:15;13.88;;;8.48;;